sensor_id;sensor_type;location;lat;lon;timestamp;P1;durP1;ratioP1;P2;durP2;ratioP2
76357;SDS011;65185;21.060;105.826;2024-02-23T00:00:59;95.03;;;57.83;;
76357;SDS011;65185;21.060;105.826;2024-02-23T00:03:26;97.35;;;57.53;;
76357;SDS011;65185;21.060;105.826;2024-02-23T00:05:52;98.03;;;58.65;;
76357;SDS011;65185;21.060;105.826;2024-02-23T00:08:19;94.72;;;56.88;;
76357;SDS011;65185;21.060;105.826;2024-02-23T00:10:45;93.55;;;57.95;;
76357;SDS011;65185;21.060;105.826;2024-02-23T00:13:11;97.70;;;59.30;;
76357;SDS011;65185;21.060;105.826;2024-02-23T00:15:38;100.00;;;60.55;;
76357;SDS011;65185;21.060;105.826;2024-02-23T00:18:04;98.93;;;59.10;;
76357;SDS011;65185;21.060;105.826;2024-02-23T00:20:31;94.45;;;57.50;;
76357;SDS011;65185;21.060;105.826;2024-02-23T00:22:57;111.68;;;65.28;;
76357;SDS011;65185;21.060;105.826;2024-02-23T00:25:24;105.00;;;64.72;;
76357;SDS011;65185;21.060;105.826;2024-02-23T00:27:50;117.85;;;64.45;;
76357;SDS011;65185;21.060;105.826;2024-02-23T00:30:16;106.30;;;61.80;;
76357;SDS011;65185;21.060;105.826;2024-02-23T00:32:42;114.25;;;64.47;;
76357;SDS011;65185;21.060;105.826;2024-02-23T00:35:09;109.45;;;61.47;;
76357;SDS011;65185;21.060;105.826;2024-02-23T00:37:35;113.28;;;65.80;;
76357;SDS011;65185;21.060;105.826;2024-02-23T00:40:03;113.78;;;65.20;;
76357;SDS011;65185;21.060;105.826;2024-02-23T00:42:30;105.65;;;59.90;;
76357;SDS011;65185;21.060;105.826;2024-02-23T00:44:57;108.53;;;64.78;;
76357;SDS011;65185;21.060;105.826;2024-02-23T00:47:23;111.57;;;64.72;;
76357;SDS011;65185;21.060;105.826;2024-02-23T00:49:49;111.57;;;62.92;;
76357;SDS011;65185;21.060;105.826;2024-02-23T00:52:16;107.13;;;63.97;;
76357;SDS011;65185;21.060;105.826;2024-02-23T00:54:43;116.10;;;64.55;;
76357;SDS011;65185;21.060;105.826;2024-02-23T00:57:09;112.28;;;63.33;;
76357;SDS011;65185;21.060;105.826;2024-02-23T00:59:35;113.50;;;62.20;;
76357;SDS011;65185;21.060;105.826;2024-02-23T01:02:02;116.47;;;66.00;;
76357;SDS011;65185;21.060;105.826;2024-02-23T01:04:28;112.35;;;63.65;;
76357;SDS011;65185;21.060;105.826;2024-02-23T01:06:54;116.07;;;66.55;;
76357;SDS011;65185;21.060;105.826;2024-02-23T01:09:20;113.47;;;65.82;;
76357;SDS011;65185;21.060;105.826;2024-02-23T01:11:47;120.90;;;67.30;;
76357;SDS011;65185;21.060;105.826;2024-02-23T01:14:14;117.20;;;67.65;;
76357;SDS011;65185;21.060;105.826;2024-02-23T01:16:40;115.28;;;65.45;;
76357;SDS011;65185;21.060;105.826;2024-02-23T01:19:06;115.47;;;64.82;;
76357;SDS011;65185;21.060;105.826;2024-02-23T01:21:34;110.10;;;64.53;;
76357;SDS011;65185;21.060;105.826;2024-02-23T01:24:00;112.53;;;66.07;;
76357;SDS011;65185;21.060;105.826;2024-02-23T01:26:27;118.55;;;67.60;;
76357;SDS011;65185;21.060;105.826;2024-02-23T01:28:53;119.68;;;68.72;;
76357;SDS011;65185;21.060;105.826;2024-02-23T01:31:19;120.75;;;68.28;;
76357;SDS011;65185;21.060;105.826;2024-02-23T01:33:46;102.28;;;62.55;;
76357;SDS011;65185;21.060;105.826;2024-02-23T01:36:12;104.32;;;62.10;;
76357;SDS011;65185;21.060;105.826;2024-02-23T01:38:39;103.47;;;62.22;;
76357;SDS011;65185;21.060;105.826;2024-02-23T01:41:08;98.50;;;60.60;;
76357;SDS011;65185;21.060;105.826;2024-02-23T01:43:36;93.15;;;56.20;;
76357;SDS011;65185;21.060;105.826;2024-02-23T01:46:03;92.65;;;54.25;;
76357;SDS011;65185;21.060;105.826;2024-02-23T01:48:30;99.25;;;56.38;;
76357;SDS011;65185;21.060;105.826;2024-02-23T01:50:57;97.22;;;55.42;;
76357;SDS011;65185;21.060;105.826;2024-02-23T01:53:24;87.68;;;52.22;;
76357;SDS011;65185;21.060;105.826;2024-02-23T01:55:52;92.22;;;53.75;;
76357;SDS011;65185;21.060;105.826;2024-02-23T01:58:20;92.95;;;52.83;;
76357;SDS011;65185;21.060;105.826;2024-02-23T02:00:47;93.75;;;53.13;;
76357;SDS011;65185;21.060;105.826;2024-02-23T02:03:14;95.25;;;57.45;;
76357;SDS011;65185;21.060;105.826;2024-02-23T02:05:40;103.32;;;59.65;;
76357;SDS011;65185;21.060;105.826;2024-02-23T02:08:07;103.35;;;59.22;;
76357;SDS011;65185;21.060;105.826;2024-02-23T02:10:33;96.65;;;55.75;;
76357;SDS011;65185;21.060;105.826;2024-02-23T02:13:03;99.38;;;56.13;;
76357;SDS011;65185;21.060;105.826;2024-02-23T02:15:30;100.40;;;55.33;;
76357;SDS011;65185;21.060;105.826;2024-02-23T02:17:57;99.97;;;55.40;;
76357;SDS011;65185;21.060;105.826;2024-02-23T02:20:24;94.68;;;51.97;;
76357;SDS011;65185;21.060;105.826;2024-02-23T02:22:51;100.90;;;54.45;;
76357;SDS011;65185;21.060;105.826;2024-02-23T02:25:18;103.72;;;56.35;;
76357;SDS011;65185;21.060;105.826;2024-02-23T02:27:45;91.20;;;51.80;;
76357;SDS011;65185;21.060;105.826;2024-02-23T02:30:11;90.85;;;51.75;;
76357;SDS011;65185;21.060;105.826;2024-02-23T02:32:38;95.85;;;53.92;;
76357;SDS011;65185;21.060;105.826;2024-02-23T02:35:05;92.32;;;50.85;;
76357;SDS011;65185;21.060;105.826;2024-02-23T02:37:31;100.72;;;52.95;;
76357;SDS011;65185;21.060;105.826;2024-02-23T02:39:58;93.60;;;50.13;;
76357;SDS011;65185;21.060;105.826;2024-02-23T02:42:24;87.88;;;47.30;;
76357;SDS011;65185;21.060;105.826;2024-02-23T02:44:51;93.97;;;50.38;;
76357;SDS011;65185;21.060;105.826;2024-02-23T02:47:17;89.35;;;47.30;;
76357;SDS011;65185;21.060;105.826;2024-02-23T02:49:43;89.60;;;46.30;;
76357;SDS011;65185;21.060;105.826;2024-02-23T02:52:10;82.68;;;45.13;;
76357;SDS011;65185;21.060;105.826;2024-02-23T02:54:36;95.13;;;49.50;;
76357;SDS011;65185;21.060;105.826;2024-02-23T02:57:03;91.05;;;48.17;;
76357;SDS011;65185;21.060;105.826;2024-02-23T02:59:29;99.32;;;56.72;;
76357;SDS011;65185;21.060;105.826;2024-02-23T03:01:59;99.10;;;56.50;;
76357;SDS011;65185;21.060;105.826;2024-02-23T03:04:25;104.85;;;56.85;;
76357;SDS011;65185;21.060;105.826;2024-02-23T03:06:52;99.15;;;54.30;;
76357;SDS011;65185;21.060;105.826;2024-02-23T03:09:18;89.05;;;51.78;;
76357;SDS011;65185;21.060;105.826;2024-02-23T03:11:44;98.30;;;56.28;;
76357;SDS011;65185;21.060;105.826;2024-02-23T03:14:11;95.43;;;53.55;;
76357;SDS011;65185;21.060;105.826;2024-02-23T03:16:37;90.25;;;51.53;;
76357;SDS011;65185;21.060;105.826;2024-02-23T03:19:04;98.10;;;56.40;;
76357;SDS011;65185;21.060;105.826;2024-02-23T03:21:30;98.47;;;54.05;;
76357;SDS011;65185;21.060;105.826;2024-02-23T03:23:57;92.57;;;49.85;;
76357;SDS011;65185;21.060;105.826;2024-02-23T03:26:23;102.35;;;54.30;;
76357;SDS011;65185;21.060;105.826;2024-02-23T03:28:49;98.35;;;54.90;;
76357;SDS011;65185;21.060;105.826;2024-02-23T03:31:16;97.25;;;54.17;;
76357;SDS011;65185;21.060;105.826;2024-02-23T03:33:42;97.65;;;54.00;;
76357;SDS011;65185;21.060;105.826;2024-02-23T03:36:08;92.85;;;52.95;;
76357;SDS011;65185;21.060;105.826;2024-02-23T03:38:35;96.20;;;52.58;;
76357;SDS011;65185;21.060;105.826;2024-02-23T03:41:01;96.38;;;53.28;;
76357;SDS011;65185;21.060;105.826;2024-02-23T03:43:27;90.18;;;49.90;;
76357;SDS011;65185;21.060;105.826;2024-02-23T03:45:54;93.30;;;52.67;;
76357;SDS011;65185;21.060;105.826;2024-02-23T03:48:20;86.70;;;49.30;;
76357;SDS011;65185;21.060;105.826;2024-02-23T03:50:46;87.15;;;45.28;;
76357;SDS011;65185;21.060;105.826;2024-02-23T03:53:13;86.93;;;46.03;;
76357;SDS011;65185;21.060;105.826;2024-02-23T03:55:39;81.75;;;45.75;;
76357;SDS011;65185;21.060;105.826;2024-02-23T03:58:06;83.40;;;47.15;;
76357;SDS011;65185;21.060;105.826;2024-02-23T04:00:32;78.93;;;43.25;;
76357;SDS011;65185;21.060;105.826;2024-02-23T04:02:59;81.53;;;45.63;;
76357;SDS011;65185;21.060;105.826;2024-02-23T04:05:25;74.68;;;43.67;;
76357;SDS011;65185;21.060;105.826;2024-02-23T04:07:52;86.47;;;47.90;;
76357;SDS011;65185;21.060;105.826;2024-02-23T04:10:18;83.63;;;46.75;;
76357;SDS011;65185;21.060;105.826;2024-02-23T04:12:48;87.20;;;48.50;;
76357;SDS011;65185;21.060;105.826;2024-02-23T04:15:14;84.30;;;47.08;;
76357;SDS011;65185;21.060;105.826;2024-02-23T04:17:40;86.82;;;51.28;;
76357;SDS011;65185;21.060;105.826;2024-02-23T04:20:07;81.43;;;48.45;;
76357;SDS011;65185;21.060;105.826;2024-02-23T04:25:03;75.13;;;42.60;;
76357;SDS011;65185;21.060;105.826;2024-02-23T04:27:30;68.15;;;37.78;;
76357;SDS011;65185;21.060;105.826;2024-02-23T04:29:56;68.32;;;35.38;;
76357;SDS011;65185;21.060;105.826;2024-02-23T04:32:23;66.78;;;37.10;;
76357;SDS011;65185;21.060;105.826;2024-02-23T04:34:49;67.47;;;37.40;;
76357;SDS011;65185;21.060;105.826;2024-02-23T04:37:16;67.68;;;36.35;;
76357;SDS011;65185;21.060;105.826;2024-02-23T04:39:45;67.03;;;34.25;;
76357;SDS011;65185;21.060;105.826;2024-02-23T04:42:11;58.80;;;30.75;;
76357;SDS011;65185;21.060;105.826;2024-02-23T04:44:37;66.57;;;33.55;;
76357;SDS011;65185;21.060;105.826;2024-02-23T04:47:04;64.95;;;31.63;;
76357;SDS011;65185;21.060;105.826;2024-02-23T04:49:31;62.42;;;32.83;;
76357;SDS011;65185;21.060;105.826;2024-02-23T04:51:57;65.38;;;33.50;;
76357;SDS011;65185;21.060;105.826;2024-02-23T04:54:23;52.95;;;28.77;;
76357;SDS011;65185;21.060;105.826;2024-02-23T04:56:50;59.83;;;30.92;;
76357;SDS011;65185;21.060;105.826;2024-02-23T04:59:16;60.50;;;30.70;;
76357;SDS011;65185;21.060;105.826;2024-02-23T05:01:42;55.47;;;29.00;;
76357;SDS011;65185;21.060;105.826;2024-02-23T05:04:09;58.35;;;32.55;;
76357;SDS011;65185;21.060;105.826;2024-02-23T05:06:35;58.47;;;31.38;;
76357;SDS011;65185;21.060;105.826;2024-02-23T05:09:01;60.17;;;29.85;;
76357;SDS011;65185;21.060;105.826;2024-02-23T05:11:28;56.80;;;31.50;;
76357;SDS011;65185;21.060;105.826;2024-02-23T05:13:54;55.22;;;30.13;;
76357;SDS011;65185;21.060;105.826;2024-02-23T05:16:21;48.85;;;28.45;;
76357;SDS011;65185;21.060;105.826;2024-02-23T05:18:47;53.38;;;28.13;;
76357;SDS011;65185;21.060;105.826;2024-02-23T05:21:16;47.45;;;28.17;;
76357;SDS011;65185;21.060;105.826;2024-02-23T05:23:43;51.33;;;28.38;;
76357;SDS011;65185;21.060;105.826;2024-02-23T05:26:11;48.33;;;27.90;;
76357;SDS011;65185;21.060;105.826;2024-02-23T05:28:38;52.78;;;29.90;;
76357;SDS011;65185;21.060;105.826;2024-02-23T05:31:04;49.88;;;28.45;;
76357;SDS011;65185;21.060;105.826;2024-02-23T05:33:30;49.85;;;29.20;;
76357;SDS011;65185;21.060;105.826;2024-02-23T05:35:57;46.20;;;27.77;;
76357;SDS011;65185;21.060;105.826;2024-02-23T05:38:23;51.28;;;29.85;;
76357;SDS011;65185;21.060;105.826;2024-02-23T05:40:49;50.72;;;29.70;;
76357;SDS011;65185;21.060;105.826;2024-02-23T05:43:15;49.65;;;27.80;;
76357;SDS011;65185;21.060;105.826;2024-02-23T05:45:42;44.13;;;26.65;;
76357;SDS011;65185;21.060;105.826;2024-02-23T05:48:09;50.22;;;27.80;;
76357;SDS011;65185;21.060;105.826;2024-02-23T05:50:36;41.78;;;26.63;;
76357;SDS011;65185;21.060;105.826;2024-02-23T05:53:03;43.95;;;26.15;;
76357;SDS011;65185;21.060;105.826;2024-02-23T05:55:30;45.67;;;25.90;;
76357;SDS011;65185;21.060;105.826;2024-02-23T05:57:56;41.00;;;24.48;;
76357;SDS011;65185;21.060;105.826;2024-02-23T06:00:22;42.67;;;26.55;;
76357;SDS011;65185;21.060;105.826;2024-02-23T06:02:49;46.45;;;28.00;;
76357;SDS011;65185;21.060;105.826;2024-02-23T06:05:15;46.92;;;27.88;;
76357;SDS011;65185;21.060;105.826;2024-02-23T06:07:41;50.85;;;29.67;;
76357;SDS011;65185;21.060;105.826;2024-02-23T06:10:08;54.20;;;33.53;;
76357;SDS011;65185;21.060;105.826;2024-02-23T06:12:34;57.85;;;34.10;;
76357;SDS011;65185;21.060;105.826;2024-02-23T06:15:00;52.13;;;31.45;;
76357;SDS011;65185;21.060;105.826;2024-02-23T06:17:27;54.97;;;34.20;;
76357;SDS011;65185;21.060;105.826;2024-02-23T06:19:53;54.58;;;33.28;;
76357;SDS011;65185;21.060;105.826;2024-02-23T06:22:22;50.10;;;29.27;;
76357;SDS011;65185;21.060;105.826;2024-02-23T06:24:50;47.85;;;29.33;;
76357;SDS011;65185;21.060;105.826;2024-02-23T06:27:17;46.00;;;29.48;;
76357;SDS011;65185;21.060;105.826;2024-02-23T06:29:43;45.15;;;26.98;;
76357;SDS011;65185;21.060;105.826;2024-02-23T06:32:10;42.95;;;27.95;;
76357;SDS011;65185;21.060;105.826;2024-02-23T06:34:36;45.25;;;29.30;;
76357;SDS011;65185;21.060;105.826;2024-02-23T06:37:02;49.53;;;31.75;;
76357;SDS011;65185;21.060;105.826;2024-02-23T06:39:29;51.55;;;30.77;;
76357;SDS011;65185;21.060;105.826;2024-02-23T06:41:55;51.53;;;32.25;;
76357;SDS011;65185;21.060;105.826;2024-02-23T06:44:23;51.60;;;32.97;;
76357;SDS011;65185;21.060;105.826;2024-02-23T06:46:49;50.92;;;34.15;;
76357;SDS011;65185;21.060;105.826;2024-02-23T06:49:15;54.60;;;34.13;;
76357;SDS011;65185;21.060;105.826;2024-02-23T06:51:42;48.40;;;32.25;;
76357;SDS011;65185;21.060;105.826;2024-02-23T06:54:08;53.72;;;33.72;;
76357;SDS011;65185;21.060;105.826;2024-02-23T06:56:34;54.35;;;33.40;;
76357;SDS011;65185;21.060;105.826;2024-02-23T06:59:02;52.00;;;31.85;;
76357;SDS011;65185;21.060;105.826;2024-02-23T07:01:28;53.15;;;30.83;;
76357;SDS011;65185;21.060;105.826;2024-02-23T07:03:56;52.00;;;31.33;;
76357;SDS011;65185;21.060;105.826;2024-02-23T07:06:22;50.78;;;30.55;;
76357;SDS011;65185;21.060;105.826;2024-02-23T07:08:49;44.17;;;27.95;;
76357;SDS011;65185;21.060;105.826;2024-02-23T07:11:15;41.53;;;26.08;;
76357;SDS011;65185;21.060;105.826;2024-02-23T07:13:44;38.65;;;23.67;;
76357;SDS011;65185;21.060;105.826;2024-02-23T07:16:11;39.40;;;24.20;;
76357;SDS011;65185;21.060;105.826;2024-02-23T07:18:37;38.45;;;24.50;;
76357;SDS011;65185;21.060;105.826;2024-02-23T07:21:05;37.92;;;23.02;;
76357;SDS011;65185;21.060;105.826;2024-02-23T07:23:32;35.08;;;21.40;;
76357;SDS011;65185;21.060;105.826;2024-02-23T07:25:58;33.60;;;21.65;;
76357;SDS011;65185;21.060;105.826;2024-02-23T07:28:24;33.70;;;21.33;;
76357;SDS011;65185;21.060;105.826;2024-02-23T07:30:51;36.53;;;23.40;;
76357;SDS011;65185;21.060;105.826;2024-02-23T07:33:18;36.63;;;24.13;;
76357;SDS011;65185;21.060;105.826;2024-02-23T07:35:44;33.90;;;22.67;;
76357;SDS011;65185;21.060;105.826;2024-02-23T07:38:10;33.38;;;21.38;;
76357;SDS011;65185;21.060;105.826;2024-02-23T07:40:37;30.77;;;20.27;;
76357;SDS011;65185;21.060;105.826;2024-02-23T07:43:05;33.65;;;21.63;;
76357;SDS011;65185;21.060;105.826;2024-02-23T07:45:31;34.28;;;21.50;;
76357;SDS011;65185;21.060;105.826;2024-02-23T07:47:59;31.67;;;19.52;;
76357;SDS011;65185;21.060;105.826;2024-02-23T07:50:25;30.80;;;20.50;;
76357;SDS011;65185;21.060;105.826;2024-02-23T07:52:52;33.45;;;21.35;;
76357;SDS011;65185;21.060;105.826;2024-02-23T07:55:18;29.10;;;19.88;;
76357;SDS011;65185;21.060;105.826;2024-02-23T07:57:45;35.38;;;22.60;;
76357;SDS011;65185;21.060;105.826;2024-02-23T08:00:11;30.58;;;20.08;;
76357;SDS011;65185;21.060;105.826;2024-02-23T08:02:38;31.35;;;21.10;;
76357;SDS011;65185;21.060;105.826;2024-02-23T08:05:05;28.30;;;20.50;;
76357;SDS011;65185;21.060;105.826;2024-02-23T08:07:32;35.30;;;22.58;;
76357;SDS011;65185;21.060;105.826;2024-02-23T08:09:59;31.67;;;20.70;;
76357;SDS011;65185;21.060;105.826;2024-02-23T08:12:25;33.05;;;21.40;;
76357;SDS011;65185;21.060;105.826;2024-02-23T08:14:52;34.78;;;22.95;;
76357;SDS011;65185;21.060;105.826;2024-02-23T08:17:18;34.15;;;20.88;;
76357;SDS011;65185;21.060;105.826;2024-02-23T08:19:46;28.92;;;19.45;;
76357;SDS011;65185;21.060;105.826;2024-02-23T08:22:12;30.98;;;21.38;;
76357;SDS011;65185;21.060;105.826;2024-02-23T08:24:39;29.83;;;19.60;;
76357;SDS011;65185;21.060;105.826;2024-02-23T08:27:05;30.95;;;21.33;;
76357;SDS011;65185;21.060;105.826;2024-02-23T08:29:32;31.33;;;21.38;;
76357;SDS011;65185;21.060;105.826;2024-02-23T08:31:58;31.73;;;21.88;;
76357;SDS011;65185;21.060;105.826;2024-02-23T08:34:24;32.95;;;22.52;;
76357;SDS011;65185;21.060;105.826;2024-02-23T08:36:51;31.83;;;21.98;;
76357;SDS011;65185;21.060;105.826;2024-02-23T08:39:17;33.10;;;23.25;;
76357;SDS011;65185;21.060;105.826;2024-02-23T08:41:43;36.25;;;23.77;;
76357;SDS011;65185;21.060;105.826;2024-02-23T08:44:10;33.90;;;22.63;;
76357;SDS011;65185;21.060;105.826;2024-02-23T08:46:36;34.92;;;23.35;;
76357;SDS011;65185;21.060;105.826;2024-02-23T08:49:04;36.55;;;25.00;;
76357;SDS011;65185;21.060;105.826;2024-02-23T08:51:31;37.80;;;25.27;;
76357;SDS011;65185;21.060;105.826;2024-02-23T08:53:57;37.80;;;25.75;;
76357;SDS011;65185;21.060;105.826;2024-02-23T08:56:28;37.22;;;25.35;;
76357;SDS011;65185;21.060;105.826;2024-02-23T08:58:54;37.67;;;25.73;;
76357;SDS011;65185;21.060;105.826;2024-02-23T09:01:21;37.42;;;26.30;;
76357;SDS011;65185;21.060;105.826;2024-02-23T09:03:47;38.97;;;25.45;;
76357;SDS011;65185;21.060;105.826;2024-02-23T09:06:13;40.83;;;27.70;;
76357;SDS011;65185;21.060;105.826;2024-02-23T09:08:40;38.33;;;26.42;;
76357;SDS011;65185;21.060;105.826;2024-02-23T09:11:06;44.88;;;28.70;;
76357;SDS011;65185;21.060;105.826;2024-02-23T09:13:33;37.53;;;24.90;;
76357;SDS011;65185;21.060;105.826;2024-02-23T09:15:59;36.72;;;26.48;;
76357;SDS011;65185;21.060;105.826;2024-02-23T09:18:25;37.60;;;24.08;;
76357;SDS011;65185;21.060;105.826;2024-02-23T09:20:52;38.70;;;23.90;;
76357;SDS011;65185;21.060;105.826;2024-02-23T09:23:18;39.70;;;24.73;;
76357;SDS011;65185;21.060;105.826;2024-02-23T09:25:45;39.30;;;24.75;;
76357;SDS011;65185;21.060;105.826;2024-02-23T09:28:11;37.25;;;24.45;;
76357;SDS011;65185;21.060;105.826;2024-02-23T09:30:37;37.95;;;24.55;;
76357;SDS011;65185;21.060;105.826;2024-02-23T09:33:04;39.30;;;24.58;;
76357;SDS011;65185;21.060;105.826;2024-02-23T09:35:31;40.58;;;26.65;;
76357;SDS011;65185;21.060;105.826;2024-02-23T09:37:57;41.03;;;26.20;;
76357;SDS011;65185;21.060;105.826;2024-02-23T09:40:23;36.95;;;25.70;;
76357;SDS011;65185;21.060;105.826;2024-02-23T09:42:52;38.97;;;26.15;;
76357;SDS011;65185;21.060;105.826;2024-02-23T09:45:22;38.58;;;25.77;;
76357;SDS011;65185;21.060;105.826;2024-02-23T09:47:51;38.30;;;24.90;;
76357;SDS011;65185;21.060;105.826;2024-02-23T09:50:20;42.80;;;26.67;;
76357;SDS011;65185;21.060;105.826;2024-02-23T09:52:48;43.55;;;27.40;;
76357;SDS011;65185;21.060;105.826;2024-02-23T09:55:16;45.50;;;28.73;;
76357;SDS011;65185;21.060;105.826;2024-02-23T09:57:44;45.80;;;28.05;;
76357;SDS011;65185;21.060;105.826;2024-02-23T10:00:13;45.65;;;28.95;;
76357;SDS011;65185;21.060;105.826;2024-02-23T10:02:42;40.88;;;26.42;;
76357;SDS011;65185;21.060;105.826;2024-02-23T10:05:12;41.55;;;27.52;;
76357;SDS011;65185;21.060;105.826;2024-02-23T10:07:42;49.92;;;28.92;;
76357;SDS011;65185;21.060;105.826;2024-02-23T10:10:09;42.13;;;27.23;;
76357;SDS011;65185;21.060;105.826;2024-02-23T10:12:39;42.25;;;28.02;;
76357;SDS011;65185;21.060;105.826;2024-02-23T10:15:05;40.47;;;27.98;;
76357;SDS011;65185;21.060;105.826;2024-02-23T10:17:33;49.67;;;31.38;;
76357;SDS011;65185;21.060;105.826;2024-02-23T10:19:59;44.05;;;28.50;;
76357;SDS011;65185;21.060;105.826;2024-02-23T10:22:30;38.88;;;26.77;;
76357;SDS011;65185;21.060;105.826;2024-02-23T10:24:57;46.67;;;29.33;;
76357;SDS011;65185;21.060;105.826;2024-02-23T10:27:23;43.80;;;28.27;;
76357;SDS011;65185;21.060;105.826;2024-02-23T10:29:50;40.78;;;27.10;;
76357;SDS011;65185;21.060;105.826;2024-02-23T10:32:16;43.58;;;27.10;;
76357;SDS011;65185;21.060;105.826;2024-02-23T10:34:47;38.72;;;25.95;;
76357;SDS011;65185;21.060;105.826;2024-02-23T10:37:17;45.75;;;28.33;;
76357;SDS011;65185;21.060;105.826;2024-02-23T10:39:43;43.10;;;27.92;;
76357;SDS011;65185;21.060;105.826;2024-02-23T10:42:12;50.95;;;31.73;;
76357;SDS011;65185;21.060;105.826;2024-02-23T10:44:39;46.65;;;29.17;;
76357;SDS011;65185;21.060;105.826;2024-02-23T10:47:07;44.97;;;28.33;;
76357;SDS011;65185;21.060;105.826;2024-02-23T10:49:33;41.38;;;27.65;;
76357;SDS011;65185;21.060;105.826;2024-02-23T10:52:02;42.15;;;26.90;;
76357;SDS011;65185;21.060;105.826;2024-02-23T10:54:30;47.03;;;29.33;;
76357;SDS011;65185;21.060;105.826;2024-02-23T10:56:57;44.13;;;27.55;;
76357;SDS011;65185;21.060;105.826;2024-02-23T10:59:24;42.55;;;27.83;;
76357;SDS011;65185;21.060;105.826;2024-02-23T11:01:53;46.00;;;29.48;;
76357;SDS011;65185;21.060;105.826;2024-02-23T11:04:25;42.05;;;27.60;;
76357;SDS011;65185;21.060;105.826;2024-02-23T11:06:56;47.25;;;30.40;;
76357;SDS011;65185;21.060;105.826;2024-02-23T11:09:31;47.30;;;28.73;;
76357;SDS011;65185;21.060;105.826;2024-02-23T11:11:58;44.47;;;28.00;;
76357;SDS011;65185;21.060;105.826;2024-02-23T11:14:31;45.10;;;28.27;;
76357;SDS011;65185;21.060;105.826;2024-02-23T11:17:00;44.30;;;29.88;;
76357;SDS011;65185;21.060;105.826;2024-02-23T11:19:36;49.35;;;32.20;;
76357;SDS011;65185;21.060;105.826;2024-02-23T11:22:10;48.00;;;31.08;;
76357;SDS011;65185;21.060;105.826;2024-02-23T11:24:41;51.33;;;33.15;;
76357;SDS011;65185;21.060;105.826;2024-02-23T11:27:13;53.97;;;36.10;;
76357;SDS011;65185;21.060;105.826;2024-02-23T11:29:42;52.22;;;33.45;;
76357;SDS011;65185;21.060;105.826;2024-02-23T11:32:12;51.22;;;31.95;;
76357;SDS011;65185;21.060;105.826;2024-02-23T11:34:53;48.70;;;30.50;;
76357;SDS011;65185;21.060;105.826;2024-02-23T11:37:23;49.60;;;31.38;;
76357;SDS011;65185;21.060;105.826;2024-02-23T11:39:49;46.00;;;31.10;;
76357;SDS011;65185;21.060;105.826;2024-02-23T11:42:16;53.92;;;32.22;;
76357;SDS011;65185;21.060;105.826;2024-02-23T11:44:44;53.78;;;34.10;;
76357;SDS011;65185;21.060;105.826;2024-02-23T11:47:10;51.78;;;31.60;;
76357;SDS011;65185;21.060;105.826;2024-02-23T11:49:36;50.83;;;31.25;;
76357;SDS011;65185;21.060;105.826;2024-02-23T11:52:03;54.35;;;32.03;;
76357;SDS011;65185;21.060;105.826;2024-02-23T11:54:30;50.75;;;32.85;;
76357;SDS011;65185;21.060;105.826;2024-02-23T11:56:56;56.00;;;33.20;;
76357;SDS011;65185;21.060;105.826;2024-02-23T11:59:23;52.25;;;32.88;;
76357;SDS011;65185;21.060;105.826;2024-02-23T12:01:50;53.95;;;33.80;;
76357;SDS011;65185;21.060;105.826;2024-02-23T12:04:16;51.67;;;33.40;;
76357;SDS011;65185;21.060;105.826;2024-02-23T12:06:43;52.22;;;32.80;;
76357;SDS011;65185;21.060;105.826;2024-02-23T12:09:11;50.60;;;31.88;;
76357;SDS011;65185;21.060;105.826;2024-02-23T12:11:39;47.05;;;29.58;;
76357;SDS011;65185;21.060;105.826;2024-02-23T12:14:05;50.08;;;31.20;;
76357;SDS011;65185;21.060;105.826;2024-02-23T12:16:34;48.70;;;30.65;;
76357;SDS011;65185;21.060;105.826;2024-02-23T12:19:01;51.05;;;30.52;;
76357;SDS011;65185;21.060;105.826;2024-02-23T12:21:33;50.22;;;30.98;;
76357;SDS011;65185;21.060;105.826;2024-02-23T12:24:03;46.33;;;29.83;;
76357;SDS011;65185;21.060;105.826;2024-02-23T12:26:33;43.30;;;28.00;;
76357;SDS011;65185;21.060;105.826;2024-02-23T12:29:00;47.15;;;28.20;;
76357;SDS011;65185;21.060;105.826;2024-02-23T12:31:28;41.03;;;26.02;;
76357;SDS011;65185;21.060;105.826;2024-02-23T12:33:56;43.00;;;27.05;;
76357;SDS011;65185;21.060;105.826;2024-02-23T12:36:23;38.78;;;25.70;;
76357;SDS011;65185;21.060;105.826;2024-02-23T12:38:49;43.97;;;26.42;;
76357;SDS011;65185;21.060;105.826;2024-02-23T12:41:15;40.95;;;26.55;;
76357;SDS011;65185;21.060;105.826;2024-02-23T12:43:42;42.08;;;27.45;;
76357;SDS011;65185;21.060;105.826;2024-02-23T12:46:08;43.80;;;28.02;;
76357;SDS011;65185;21.060;105.826;2024-02-23T12:48:35;43.63;;;27.83;;
76357;SDS011;65185;21.060;105.826;2024-02-23T12:51:01;39.60;;;25.85;;
76357;SDS011;65185;21.060;105.826;2024-02-23T12:56:04;41.63;;;26.35;;
76357;SDS011;65185;21.060;105.826;2024-02-23T12:58:33;42.40;;;27.88;;
76357;SDS011;65185;21.060;105.826;2024-02-23T13:01:04;42.20;;;27.42;;
76357;SDS011;65185;21.060;105.826;2024-02-23T13:03:31;36.85;;;25.15;;
76357;SDS011;65185;21.060;105.826;2024-02-23T13:05:58;41.10;;;27.63;;
76357;SDS011;65185;21.060;105.826;2024-02-23T13:08:25;40.65;;;25.52;;
76357;SDS011;65185;21.060;105.826;2024-02-23T13:10:52;40.38;;;25.33;;
76357;SDS011;65185;21.060;105.826;2024-02-23T13:13:19;38.72;;;24.48;;
76357;SDS011;65185;21.060;105.826;2024-02-23T13:15:47;40.20;;;25.63;;
76357;SDS011;65185;21.060;105.826;2024-02-23T13:18:14;36.53;;;23.15;;
76357;SDS011;65185;21.060;105.826;2024-02-23T13:20:41;35.92;;;24.63;;
76357;SDS011;65185;21.060;105.826;2024-02-23T13:23:08;35.65;;;24.60;;
76357;SDS011;65185;21.060;105.826;2024-02-23T13:25:35;37.58;;;23.45;;
76357;SDS011;65185;21.060;105.826;2024-02-23T13:28:02;35.35;;;23.52;;
76357;SDS011;65185;21.060;105.826;2024-02-23T13:30:30;34.88;;;23.17;;
76357;SDS011;65185;21.060;105.826;2024-02-23T13:32:56;35.30;;;23.55;;
76357;SDS011;65185;21.060;105.826;2024-02-23T13:35:23;34.75;;;22.45;;
76357;SDS011;65185;21.060;105.826;2024-02-23T13:37:50;30.27;;;20.75;;
76357;SDS011;65185;21.060;105.826;2024-02-23T13:40:16;33.97;;;21.77;;
76357;SDS011;65185;21.060;105.826;2024-02-23T13:42:43;34.33;;;21.00;;
76357;SDS011;65185;21.060;105.826;2024-02-23T13:45:15;31.80;;;20.95;;
76357;SDS011;65185;21.060;105.826;2024-02-23T13:47:42;32.47;;;21.27;;
76357;SDS011;65185;21.060;105.826;2024-02-23T13:50:10;32.28;;;20.52;;
76357;SDS011;65185;21.060;105.826;2024-02-23T13:52:37;32.25;;;19.98;;
76357;SDS011;65185;21.060;105.826;2024-02-23T13:55:03;31.17;;;20.30;;
76357;SDS011;65185;21.060;105.826;2024-02-23T13:57:30;32.92;;;21.52;;
76357;SDS011;65185;21.060;105.826;2024-02-23T13:59:56;32.00;;;21.10;;